Time;durP1;ratioP1;P1;durP2;ratioP2;P2;SDS_P1;SDS_P2;PMS_P1;PMS_P2;Temp;Humidity;BMP_temperature;BMP_pressure;BME280_temperature;BME280_humidity;BME280_pressure;Samples;Min_cycle;Max_cycle;Signal;HPM_P1;HPM_P2
2022/01/10 00:00:16;;;;;;;34.67;17.65;;;;;;;-142.57;100.00;61215.63;6172932;23;20016;-82
2022/01/10 00:02:44;;;;;;;39.35;18.67;;;;;;;-142.57;100.00;61215.63;6223881;23;20024;-83
2022/01/10 00:05:11;;;;;;;35.13;18.33;;;;;;;-142.57;100.00;61215.63;6224354;23;20487;-82
2022/01/10 00:07:41;;;;;;;37.85;17.60;;;;;;;-142.57;100.00;61215.63;6220840;23;20013;-84
2022/01/10 00:10:09;;;;;;;37.72;19.00;;;;;;;-142.57;100.00;61215.63;6219896;23;20016;-83
2022/01/10 00:12:34;;;;;;;35.28;18.33;;;;;;;-142.57;100.00;61215.63;6231703;23;20019;-82
2022/01/10 00:15:00;;;;;;;41.67;20.23;;;;;;;-142.57;100.00;61215.63;6232462;23;20013;-83
2022/01/10 00:17:26;;;;;;;38.95;19.02;;;;;;;-142.57;100.00;61215.63;6222423;23;20012;-81
2022/01/10 00:19:52;;;;;;;40.50;18.95;;;;;;;-142.57;100.00;61215.63;6230602;23;20008;-80
2022/01/10 00:22:18;;;;;;;37.63;19.17;;;;;;;-142.57;100.00;61215.63;6219297;23;20008;-82
2022/01/10 00:24:44;;;;;;;38.10;19.35;;;;;;;-142.57;100.00;61215.63;6222949;23;20086;-80
2022/01/10 00:27:09;;;;;;;39.58;20.45;;;;;;;-142.57;100.00;61215.63;6225451;23;20019;-81
2022/01/10 00:29:35;;;;;;;38.78;18.45;;;;;;;-142.57;100.00;61215.63;6222683;23;20013;-81
2022/01/10 00:32:01;;;;;;;32.30;16.83;;;;;;;-142.57;100.00;61215.63;6218709;23;20000;-81
2022/01/10 00:34:27;;;;;;;31.85;16.15;;;;;;;-142.57;100.00;61215.63;6217174;23;20344;-81
2022/01/10 00:36:53;;;;;;;27.75;15.05;;;;;;;-142.57;100.00;61215.63;6218199;23;20036;-80
2022/01/10 00:39:20;;;;;;;27.48;13.98;;;;;;;-142.57;100.00;61215.63;6216447;23;20009;-82
2022/01/10 00:41:46;;;;;;;25.92;13.07;;;;;;;-142.57;100.00;61215.63;6216158;23;20012;-80
2022/01/10 00:44:14;;;;;;;23.30;12.25;;;;;;;-142.57;100.00;61215.63;6216138;23;20012;-81
2022/01/10 00:46:40;;;;;;;22.55;11.85;;;;;;;-142.57;100.00;61215.63;6189559;23;20009;-80
2022/01/10 00:49:06;;;;;;;20.30;10.63;;;;;;;-142.57;100.00;61215.63;6190334;23;20024;-81
2022/01/10 00:51:32;;;;;;;23.75;11.70;;;;;;;-142.57;100.00;61215.63;6225121;23;20496;-80
2022/01/10 00:53:58;;;;;;;18.67;9.75;;;;;;;-142.57;100.00;61215.63;6238806;23;20031;-81
2022/01/10 00:56:24;;;;;;;17.98;9.70;;;;;;;-142.57;100.00;61215.63;6214150;23;20008;-81
2022/01/10 00:58:51;;;;;;;26.30;10.52;;;;;;;-142.57;100.00;61215.63;6214204;23;20013;-81
2022/01/10 01:01:18;;;;;;;17.65;8.77;;;;;;;-142.57;100.00;61215.63;6213458;23;20018;-81
2022/01/10 01:03:45;;;;;;;17.88;9.20;;;;;;;-142.57;100.00;61215.63;6188270;23;20032;-81
2022/01/10 01:06:12;;;;;;;18.15;9.18;;;;;;;-142.57;100.00;61215.63;6213932;23;20016;-82
2022/01/10 01:08:38;;;;;;;18.85;9.23;;;;;;;-142.57;100.00;61215.63;6215228;23;20012;-82
2022/01/10 01:16:18;;;;;;;17.77;9.40;;;;;;;-142.57;100.00;61215.63;6240777;23;20009;-81
2022/01/10 01:24:08;;;;;;;20.42;10.05;;;;;;;-142.57;100.00;61215.63;6240280;23;20451;-81
2022/01/10 01:26:46;;;;;;;23.13;11.18;;;;;;;-142.57;100.00;61215.63;6214665;23;20013;-82
2022/01/10 01:29:15;;;;;;;25.70;11.55;;;;;;;-142.57;100.00;61215.63;6242412;23;20013;-80
2022/01/10 01:31:42;;;;;;;20.95;10.95;;;;;;;-142.57;100.00;61215.63;6242423;23;20008;-83
2022/01/10 01:34:08;;;;;;;23.25;11.73;;;;;;;-142.57;100.00;61215.63;6215097;23;20435;-82
2022/01/10 01:36:35;;;;;;;21.13;10.43;;;;;;;-142.57;100.00;61215.63;6243427;23;20016;-81
2022/01/10 01:39:05;;;;;;;18.73;10.27;;;;;;;-142.57;100.00;61215.63;6228435;23;20024;-82
2022/01/10 01:43:59;;;;;;;20.83;9.70;;;;;;;-142.57;100.00;61215.63;6202604;23;20017;-81
2022/01/10 01:46:25;;;;;;;21.77;10.10;;;;;;;-142.57;100.00;61215.63;6215873;23;20094;-84
2022/01/10 01:48:52;;;;;;;20.63;10.38;;;;;;;-142.57;100.00;61215.63;6216325;23;20024;-82
2022/01/10 01:51:22;;;;;;;21.20;10.02;;;;;;;-142.57;100.00;61215.63;6215655;23;20009;-84
2022/01/10 01:53:48;;;;;;;21.80;9.35;;;;;;;-142.57;100.00;61215.63;6217139;23;20019;-83
2022/01/10 01:56:14;;;;;;;20.08;10.25;;;;;;;-142.57;100.00;61215.63;6242892;23;20032;-81
2022/01/10 01:58:42;;;;;;;26.77;11.98;;;;;;;-142.57;100.00;61215.63;6216508;23;20047;-81
2022/01/10 02:01:09;;;;;;;19.40;10.65;;;;;;;-142.57;100.00;61215.63;6216025;23;19988;-81
2022/01/10 02:03:38;;;;;;;18.25;10.13;;;;;;;-142.57;100.00;61215.63;6216005;23;20023;-82
2022/01/10 02:06:06;;;;;;;22.52;11.23;;;;;;;-142.57;100.00;61215.63;6212109;23;20099;-79
2022/01/10 02:08:36;;;;;;;23.52;10.73;;;;;;;-142.57;100.00;61215.63;6191994;23;20051;-82
2022/01/10 02:11:05;;;;;;;21.33;10.45;;;;;;;-142.57;100.00;61215.63;6190457;23;20009;-81
2022/01/10 02:13:30;;;;;;;24.45;10.18;;;;;;;-142.57;100.00;61215.63;6191130;23;20016;-84
2022/01/10 02:16:04;;;;;;;25.70;11.02;;;;;;;-142.57;100.00;61215.63;6190827;23;20429;-82
2022/01/10 02:18:34;;;;;;;24.48;11.95;;;;;;;-142.57;100.00;61215.63;6191238;23;20340;-81
2022/01/10 02:21:03;;;;;;;25.27;11.90;;;;;;;-142.57;100.00;61215.63;6191236;23;20082;-83
2022/01/10 02:23:32;;;;;;;25.45;12.88;;;;;;;-142.57;100.00;61215.63;6191215;23;20011;-82
2022/01/10 02:26:21;;;;;;;25.08;12.77;;;;;;;-142.57;100.00;61215.63;6217555;23;20087;-81
2022/01/10 02:28:47;;;;;;;33.85;16.13;;;;;;;-142.57;100.00;61215.63;6191062;23;20024;-82
2022/01/10 02:31:14;;;;;;;30.85;14.07;;;;;;;-142.57;100.00;61215.63;6190870;23;20040;-83
2022/01/10 02:33:40;;;;;;;31.33;14.88;;;;;;;-142.57;100.00;61215.63;6217199;23;20013;-81
2022/01/10 02:38:54;;;;;;;31.70;15.23;;;;;;;-142.57;100.00;61215.63;6217082;23;20036;-82
2022/01/10 02:41:33;;;;;;;32.28;15.80;;;;;;;-142.57;100.00;61215.63;6190408;23;20267;-81
2022/01/10 02:44:03;;;;;;;29.83;15.75;;;;;;;-142.57;100.00;61215.63;6190123;23;20012;-82
2022/01/10 02:46:32;;;;;;;29.55;15.18;;;;;;;-142.57;100.00;61215.63;6165486;23;21281;-82
2022/01/10 02:48:59;;;;;;;39.00;16.85;;;;;;;-142.57;100.00;61215.63;6190497;23;20036;-82
2022/01/10 02:51:25;;;;;;;30.88;14.52;;;;;;;-142.57;100.00;61215.63;6190276;23;20337;-83
2022/01/10 02:53:53;;;;;;;34.17;15.38;;;;;;;-142.57;100.00;61215.63;6191039;23;20177;-83
2022/01/10 02:56:18;;;;;;;33.63;15.63;;;;;;;-142.57;100.00;61215.63;6190465;23;20408;-80
2022/01/10 02:58:44;;;;;;;29.98;14.77;;;;;;;-142.57;100.00;61215.63;6166373;23;20051;-82
2022/01/10 03:01:10;;;;;;;33.40;15.20;;;;;;;-142.57;100.00;61215.63;6198949;23;20008;-83
2022/01/10 03:03:38;;;;;;;35.55;15.95;;;;;;;-142.57;100.00;61215.63;6205263;23;20004;-82
2022/01/10 03:06:04;;;;;;;29.10;15.05;;;;;;;-142.57;100.00;61215.63;6177914;23;20322;-83
2022/01/10 03:08:31;;;;;;;34.45;15.05;;;;;;;-142.57;100.00;61215.63;6224720;23;20027;-81
2022/01/10 03:11:00;;;;;;;33.72;14.45;;;;;;;-142.57;100.00;61215.63;6207374;23;20070;-82
2022/01/10 03:13:28;;;;;;;27.50;13.13;;;;;;;-142.57;100.00;61215.63;6214326;23;20008;-81
2022/01/10 03:15:54;;;;;;;33.38;15.88;;;;;;;-142.57;100.00;61215.63;6234782;23;20019;-82
2022/01/10 03:18:20;;;;;;;31.45;17.10;;;;;;;-142.57;100.00;61215.63;6217330;23;20016;-81
2022/01/10 03:21:05;;;;;;;30.13;14.75;;;;;;;-142.57;100.00;61215.63;6192639;23;20032;-81
2022/01/10 03:23:31;;;;;;;33.25;17.23;;;;;;;-142.57;100.00;61215.63;6210021;23;20023;-82
2022/01/10 03:25:57;;;;;;;34.60;17.33;;;;;;;-142.57;100.00;61215.63;6238763;23;19996;-81
2022/01/10 03:28:23;;;;;;;33.10;17.77;;;;;;;-142.57;100.00;61215.63;6234415;23;20012;-79
2022/01/10 03:30:52;;;;;;;33.13;17.83;;;;;;;-142.57;100.00;61215.63;6210187;23;20008;-82
2022/01/10 03:33:19;;;;;;;33.65;17.45;;;;;;;-142.57;100.00;61215.63;6205198;23;20013;-81
2022/01/10 03:35:45;;;;;;;35.50;18.95;;;;;;;-142.57;100.00;61215.63;6242498;23;20024;-79
2022/01/10 03:38:14;;;;;;;35.20;17.20;;;;;;;-142.57;100.00;61215.63;6213116;23;20076;-81
2022/01/10 03:40:40;;;;;;;39.15;19.05;;;;;;;-142.57;100.00;61215.63;6225107;23;20428;-81
2022/01/10 03:43:10;;;;;;;37.33;18.90;;;;;;;-142.57;100.00;61215.63;6192925;23;20063;-81
2022/01/10 03:45:36;;;;;;;38.38;16.75;;;;;;;-142.57;100.00;61215.63;6190677;23;20016;-82
2022/01/10 03:48:05;;;;;;;31.80;15.95;;;;;;;-142.57;100.00;61215.63;6190985;23;20012;-84
2022/01/10 03:50:31;;;;;;;36.60;16.92;;;;;;;-142.57;100.00;61215.63;6200510;23;20013;-80
2022/01/10 03:52:57;;;;;;;32.72;16.20;;;;;;;-142.57;100.00;61215.63;6211101;23;20020;-82
2022/01/10 03:55:23;;;;;;;31.90;15.23;;;;;;;-142.57;100.00;61215.63;6224088;23;20013;-81
2022/01/10 03:57:52;;;;;;;29.35;15.00;;;;;;;-142.57;100.00;61215.63;6190095;23;20022;-82
2022/01/10 04:00:17;;;;;;;26.52;13.65;;;;;;;-142.57;100.00;61215.63;6217029;23;20012;-82
2022/01/10 04:02:49;;;;;;;27.95;14.05;;;;;;;-142.57;100.00;61215.63;6216162;23;20028;-84
2022/01/10 04:05:17;;;;;;;27.45;14.30;;;;;;;-142.57;100.00;61215.63;6189655;23;20084;-83
2022/01/10 04:07:43;;;;;;;26.38;14.02;;;;;;;-142.57;100.00;61215.63;6189207;23;20110;-83
2022/01/10 04:10:08;;;;;;;27.63;13.55;;;;;;;-142.57;100.00;61215.63;6189604;23;20095;-82
2022/01/10 04:12:34;;;;;;;23.65;12.90;;;;;;;-142.57;100.00;61215.63;6189599;23;20380;-82
2022/01/10 04:15:00;;;;;;;23.42;13.73;;;;;;;-142.57;100.00;61215.63;6189689;23;20008;-84
2022/01/10 04:17:26;;;;;;;24.15;12.32;;;;;;;-142.57;100.00;61215.63;6189334;23;20340;-84
2022/01/10 04:19:51;;;;;;;23.25;11.95;;;;;;;-142.57;100.00;61215.63;6189744;23;20009;-81
2022/01/10 04:22:17;;;;;;;21.42;10.75;;;;;;;-142.57;100.00;61215.63;6216682;23;20004;-83
2022/01/10 04:24:43;;;;;;;25.05;11.70;;;;;;;-142.57;100.00;61215.63;6190486;23;20008;-82
2022/01/10 04:27:10;;;;;;;20.45;10.07;;;;;;;-142.57;100.00;61215.63;6200911;23;20019;-81
2022/01/10 04:29:36;;;;;;;20.83;10.60;;;;;;;-142.57;100.00;61215.63;6217271;23;20013;-82
2022/01/10 04:32:03;;;;;;;20.00;10.07;;;;;;;-142.57;100.00;61215.63;6189571;23;20004;-81
2022/01/10 04:34:30;;;;;;;20.08;10.82;;;;;;;-142.57;100.00;61215.63;6190183;23;20036;-81
2022/01/10 04:36:55;;;;;;;22.60;10.32;;;;;;;-142.57;100.00;61215.63;6190112;23;20013;-84
2022/01/10 04:39:22;;;;;;;18.58;10.25;;;;;;;-142.57;100.00;61215.63;6190386;23;20012;-81
2022/01/10 04:41:47;;;;;;;19.73;10.20;;;;;;;-142.57;100.00;61215.63;6226240;23;20068;-82
2022/01/10 04:44:13;;;;;;;20.52;9.52;;;;;;;-142.57;100.00;61215.63;6191784;23;20012;-83
2022/01/10 04:46:40;;;;;;;19.33;9.18;;;;;;;-142.57;100.00;61215.63;6192085;23;20024;-83
2022/01/10 04:49:21;;;;;;;17.88;9.05;;;;;;;-142.57;100.00;61215.63;6200125;23;20012;-82
2022/01/10 04:51:57;;;;;;;20.35;9.60;;;;;;;-142.57;100.00;61215.63;6197859;23;20019;-82
2022/01/10 04:54:24;;;;;;;18.95;8.70;;;;;;;-142.57;100.00;61215.63;6221485;23;20012;-82
2022/01/10 04:56:49;;;;;;;14.20;7.47;;;;;;;-142.57;100.00;61215.63;6190217;23;20051;-82
2022/01/10 04:59:18;;;;;;;17.95;8.27;;;;;;;-142.57;100.00;61215.63;6190813;23;20044;-82
2022/01/10 05:01:44;;;;;;;13.27;6.90;;;;;;;-142.57;100.00;61215.63;6220001;23;20016;-83
2022/01/10 05:04:10;;;;;;;13.07;7.65;;;;;;;-142.57;100.00;61215.63;6197124;23;20005;-81
2022/01/10 05:06:37;;;;;;;15.00;7.35;;;;;;;-142.57;100.00;61215.63;6218039;23;20428;-83
2022/01/10 05:09:03;;;;;;;11.55;6.45;;;;;;;-142.57;100.00;61215.63;6191789;23;20104;-83
2022/01/10 05:11:41;;;;;;;11.65;6.03;;;;;;;-142.57;100.00;61215.63;6191542;23;20062;-82
2022/01/10 05:14:08;;;;;;;10.88;6.28;;;;;;;-142.57;100.00;61215.63;6191515;23;20017;-83
2022/01/10 05:16:33;;;;;;;11.20;5.78;;;;;;;-142.57;100.00;61215.63;6191755;23;20039;-82
2022/01/10 05:18:59;;;;;;;12.50;6.53;;;;;;;-142.57;100.00;61215.63;6191377;23;20086;-82
2022/01/10 05:21:25;;;;;;;12.00;5.88;;;;;;;-142.57;100.00;61215.63;6191016;23;20369;-82
2022/01/10 05:23:51;;;;;;;11.55;6.13;;;;;;;-142.57;100.00;61215.63;6191377;23;20095;-83
2022/01/10 05:26:17;;;;;;;12.13;5.68;;;;;;;-142.57;100.00;61215.63;6190658;23;20092;-81
2022/01/10 05:28:43;;;;;;;11.75;5.70;;;;;;;-142.57;100.00;61215.63;6192400;23;20392;-83
2022/01/10 05:31:09;;;;;;;9.70;5.30;;;;;;;-142.57;100.00;61215.63;6192446;23;20047;-82
2022/01/10 05:33:49;;;;;;;8.27;4.80;;;;;;;-142.57;100.00;61215.63;6197344;23;20001;-82
2022/01/10 05:36:15;;;;;;;10.38;5.18;;;;;;;-142.57;100.00;61215.63;6196743;23;20340;-82
2022/01/10 05:38:41;;;;;;;18.88;9.30;;;;;;;-142.57;100.00;61215.63;6194557;23;20009;-82
2022/01/10 05:41:07;;;;;;;14.65;7.63;;;;;;;-142.57;100.00;61215.63;6217735;23;20020;-81
2022/01/10 05:43:34;;;;;;;8.88;5.20;;;;;;;-142.57;100.00;61215.63;6191048;23;20087;-82
2022/01/10 05:46:03;;;;;;;14.75;6.15;;;;;;;-142.57;100.00;61215.63;6190730;23;20017;-81
2022/01/10 05:48:30;;;;;;;12.45;5.05;;;;;;;-142.57;100.00;61215.63;6191289;23;20009;-83
2022/01/10 05:51:00;;;;;;;10.38;4.72;;;;;;;-142.57;100.00;61215.63;6219961;23;20012;-83
2022/01/10 05:53:27;;;;;;;10.43;5.40;;;;;;;-142.57;100.00;61215.63;6201955;23;20143;-82
2022/01/10 05:55:53;;;;;;;11.30;5.07;;;;;;;-142.57;100.00;61215.63;6191355;23;20017;-83
2022/01/10 05:58:19;;;;;;;9.75;5.53;;;;;;;-142.57;100.00;61215.63;6219672;23;20368;-81
2022/01/10 06:00:45;;;;;;;10.38;5.65;;;;;;;-142.57;100.00;61215.63;6190918;23;20008;-82
2022/01/10 06:03:11;;;;;;;13.18;5.88;;;;;;;-142.57;100.00;61215.63;6217745;23;20054;-82
2022/01/10 06:05:41;;;;;;;18.17;7.53;;;;;;;-142.57;100.00;61215.63;6167081;23;20466;-85
2022/01/10 06:08:08;;;;;;;13.82;6.80;;;;;;;-142.57;100.00;61215.63;6191015;23;20013;-81
2022/01/10 06:10:37;;;;;;;12.70;6.32;;;;;;;-142.57;100.00;61215.63;6192715;23;20009;-83
2022/01/10 06:13:15;;;;;;;15.05;6.45;;;;;;;-142.57;100.00;61215.63;6191523;23;20017;-83
2022/01/10 06:15:41;;;;;;;10.73;5.68;;;;;;;-142.57;100.00;61215.63;6168213;23;20016;-80
2022/01/10 06:18:07;;;;;;;10.80;5.40;;;;;;;-142.57;100.00;61215.63;6191630;23;20012;-83
2022/01/10 06:20:33;;;;;;;9.65;5.03;;;;;;;-142.57;100.00;61215.63;6190354;23;20000;-82
2022/01/10 06:22:59;;;;;;;8.90;4.57;;;;;;;-142.57;100.00;61215.63;6190980;23;20068;-83
2022/01/10 06:25:26;;;;;;;14.38;4.82;;;;;;;-142.57;100.00;61215.63;6190896;23;20047;-83
2022/01/10 06:27:52;;;;;;;11.88;4.88;;;;;;;-142.57;100.00;61215.63;6193175;23;20474;-85
2022/01/10 06:30:18;;;;;;;8.05;4.60;;;;;;;-142.57;100.00;61215.63;6191941;23;20012;-84
2022/01/10 06:32:46;;;;;;;11.82;4.07;;;;;;;-142.57;100.00;61215.63;6167793;23;20436;-84
2022/01/10 06:35:15;;;;;;;9.25;4.38;;;;;;;-142.57;100.00;61215.63;6219480;23;20094;-85
2022/01/10 06:37:41;;;;;;;8.88;4.13;;;;;;;-142.57;100.00;61215.63;6194091;23;20016;-86
2022/01/10 06:40:14;;;;;;;18.95;5.18;;;;;;;-142.57;100.00;61215.63;6195392;23;20000;-84
2022/01/10 06:42:44;;;;;;;7.75;4.35;;;;;;;-142.57;100.00;61215.63;6176689;23;20043;-82
2022/01/10 06:45:11;;;;;;;9.60;4.40;;;;;;;-142.57;100.00;61215.63;6212614;23;20028;-82
2022/01/10 06:47:37;;;;;;;9.23;4.55;;;;;;;-142.57;100.00;61215.63;6207522;23;20454;-86
2022/01/10 06:50:05;;;;;;;7.47;3.72;;;;;;;-142.57;100.00;61215.63;6192915;23;20043;-82
2022/01/10 06:52:36;;;;;;;9.35;4.47;;;;;;;-142.57;100.00;61215.63;6168050;23;20008;-84
2022/01/10 06:55:02;;;;;;;8.82;3.63;;;;;;;-142.57;100.00;61215.63;6190981;23;20051;-84
2022/01/10 06:57:28;;;;;;;7.47;4.28;;;;;;;-142.57;100.00;61215.63;6190438;23;20066;-82
2022/01/10 06:59:55;;;;;;;7.47;3.30;;;;;;;-142.57;100.00;61215.63;6191274;23;20012;-83
2022/01/10 07:02:21;;;;;;;7.95;3.75;;;;;;;-142.57;100.00;61215.63;6190643;23;20021;-84
2022/01/10 07:04:49;;;;;;;21.60;4.53;;;;;;;-142.57;100.00;61215.63;6197514;23;20018;-85
2022/01/10 07:07:16;;;;;;;9.13;3.70;;;;;;;-142.57;100.00;61215.63;6192605;23;20038;-85
2022/01/10 07:09:44;;;;;;;8.30;3.83;;;;;;;-142.57;100.00;61215.63;6191026;23;20086;-84
2022/01/10 07:12:12;;;;;;;7.57;3.97;;;;;;;-142.57;100.00;61215.63;6191643;23;20040;-82
2022/01/10 07:15:05;;;;;;;7.55;3.80;;;;;;;-142.57;100.00;61215.63;6214342;23;20013;-83
2022/01/10 07:17:32;;;;;;;6.38;3.83;;;;;;;-142.57;100.00;61215.63;6173489;23;20012;-85
2022/01/10 07:19:59;;;;;;;10.73;3.97;;;;;;;-142.57;100.00;61215.63;6190366;23;20004;-84
2022/01/10 07:22:30;;;;;;;9.35;4.20;;;;;;;-142.57;100.00;61215.63;6188109;23;20008;-81
2022/01/10 07:24:56;;;;;;;9.07;4.50;;;;;;;-142.57;100.00;61215.63;6187629;23;20078;-80
2022/01/10 07:27:22;;;;;;;8.07;4.30;;;;;;;-142.57;100.00;61215.63;6215223;23;20016;-83
2022/01/10 07:29:50;;;;;;;9.75;4.90;;;;;;;-142.57;100.00;61215.63;6216827;23;20020;-83
2022/01/10 07:32:16;;;;;;;9.93;5.15;;;;;;;-142.57;100.00;61215.63;6216314;23;20012;-81
2022/01/10 07:34:42;;;;;;;9.93;5.20;;;;;;;-142.57;100.00;61215.63;6189920;23;20445;-82
2022/01/10 07:37:07;;;;;;;11.52;5.20;;;;;;;-142.57;100.00;61215.63;6189581;23;20008;-81
2022/01/10 07:39:33;;;;;;;13.15;6.70;;;;;;;-142.57;100.00;61215.63;6216397;23;20020;-84
2022/01/10 07:41:58;;;;;;;11.32;6.18;;;;;;;-142.57;100.00;61215.63;6222066;23;20009;-84
2022/01/10 07:44:34;;;;;;;13.10;6.75;;;;;;;-142.57;100.00;61215.63;6191230;23;20020;-84
2022/01/10 07:47:00;;;;;;;51.08;8.10;;;;;;;-142.57;100.00;61215.63;6218725;23;20022;-80
2022/01/10 07:49:26;;;;;;;32.42;8.07;;;;;;;-142.57;100.00;61215.63;6217911;23;20044;-80
2022/01/10 07:51:52;;;;;;;23.90;7.32;;;;;;;-142.57;100.00;61215.63;6217698;23;20020;-80
2022/01/10 07:54:17;;;;;;;27.63;8.65;;;;;;;-142.57;100.00;61215.63;6190185;23;20424;-80
2022/01/10 07:56:43;;;;;;;28.98;8.18;;;;;;;-142.57;100.00;61215.63;6215269;23;20016;-81
2022/01/10 07:59:08;;;;;;;14.95;6.72;;;;;;;-142.57;100.00;61215.63;6216462;23;20009;-81
2022/01/10 08:01:34;;;;;;;19.58;6.78;;;;;;;-142.57;100.00;61215.63;6214894;23;20058;-82
2022/01/10 08:04:00;;;;;;;19.45;6.90;;;;;;;-142.57;100.00;61215.63;6216603;23;20009;-81
2022/01/10 08:06:25;;;;;;;24.92;8.57;;;;;;;-142.57;100.00;61215.63;6216510;23;20062;-81
2022/01/10 08:08:51;;;;;;;56.15;8.68;;;;;;;-142.57;100.00;61215.63;6212727;23;20102;-80
2022/01/10 08:11:17;;;;;;;361.80;24.25;;;;;;;-142.57;100.00;61215.63;6213905;23;20008;-83
2022/01/10 08:13:42;;;;;;;302.98;19.50;;;;;;;-142.57;100.00;61215.63;6216409;23;20019;-84
2022/01/10 08:16:08;;;;;;;317.73;21.23;;;;;;;-142.57;100.00;61215.63;6216927;23;20523;-84
2022/01/10 08:18:35;;;;;;;446.63;32.10;;;;;;;-142.57;100.00;61215.63;6216508;23;20090;-83
2022/01/10 08:21:02;;;;;;;121.10;11.95;;;;;;;-142.57;100.00;61215.63;6218471;23;20004;-81
2022/01/10 08:23:28;;;;;;;401.80;31.42;;;;;;;-142.57;100.00;61215.63;6218562;23;20128;-81
2022/01/10 08:25:54;;;;;;;122.90;11.32;;;;;;;-142.57;100.00;61215.63;6221032;23;20013;-81
2022/01/10 08:28:19;;;;;;;41.83;6.78;;;;;;;-142.57;100.00;61215.63;6221145;23;20020;-81
2022/01/10 08:30:45;;;;;;;193.30;18.17;;;;;;;-142.57;100.00;61215.63;6222486;23;20017;-81
2022/01/10 08:33:11;;;;;;;55.28;8.48;;;;;;;-142.57;100.00;61215.63;6218037;23;20016;-82
2022/01/10 08:35:36;;;;;;;13.85;5.10;;;;;;;-142.57;100.00;61215.63;6192196;23;20004;-85
2022/01/10 08:38:02;;;;;;;15.63;4.97;;;;;;;-142.57;100.00;61215.63;6218886;23;20019;-80
2022/01/10 08:40:28;;;;;;;15.38;6.47;;;;;;;-142.57;100.00;61215.63;6222542;23;20036;-83
2022/01/10 08:42:54;;;;;;;13.35;6.82;;;;;;;-142.57;100.00;61215.63;6217938;23;20013;-80
2022/01/10 08:45:19;;;;;;;25.50;6.70;;;;;;;-142.57;100.00;61215.63;6216508;23;20012;-83
2022/01/10 08:47:46;;;;;;;55.35;9.68;;;;;;;-142.57;100.00;61215.63;6215660;23;20439;-80
2022/01/10 08:50:13;;;;;;;15.40;6.97;;;;;;;-142.57;100.00;61215.63;6215328;23;20087;-81
2022/01/10 08:52:39;;;;;;;16.58;7.03;;;;;;;-142.57;100.00;61215.63;6215416;23;20016;-81
2022/01/10 08:55:07;;;;;;;32.45;7.80;;;;;;;-142.57;100.00;61215.63;6215620;23;20005;-81
2022/01/10 08:57:33;;;;;;;21.25;7.70;;;;;;;-142.57;100.00;61215.63;6215466;23;20012;-81
2022/01/10 08:59:58;;;;;;;17.60;7.20;;;;;;;-142.57;100.00;61215.63;6215419;23;20013;-79
2022/01/10 09:02:24;;;;;;;22.88;8.30;;;;;;;-142.57;100.00;61215.63;6189207;23;20423;-82
2022/01/10 09:04:50;;;;;;;14.23;7.32;;;;;;;-142.57;100.00;61215.63;6189494;23;20020;-84
2022/01/10 09:07:15;;;;;;;19.98;9.02;;;;;;;-142.57;100.00;61215.63;6215696;23;20066;-81
2022/01/10 09:09:42;;;;;;;14.38;6.55;;;;;;;-142.57;100.00;61215.63;6215910;23;20459;-81
2022/01/10 09:12:08;;;;;;;16.00;8.10;;;;;;;-142.57;100.00;61215.63;6216002;23;20495;-80
2022/01/10 09:14:34;;;;;;;16.05;7.22;;;;;;;-142.57;100.00;61215.63;6189208;23;20004;-85
2022/01/10 09:16:59;;;;;;;37.03;7.65;;;;;;;-142.57;100.00;61215.63;6216681;23;20491;-85
2022/01/10 09:19:25;;;;;;;25.63;8.00;;;;;;;-142.57;100.00;61215.63;6216410;23;20420;-83
2022/01/10 09:21:51;;;;;;;36.17;9.05;;;;;;;-142.57;100.00;61215.63;6216709;23;20451;-83
2022/01/10 09:24:17;;;;;;;88.15;13.57;;;;;;;-142.57;100.00;61215.63;6216574;23;20017;-84
2022/01/10 09:26:42;;;;;;;47.85;10.38;;;;;;;-142.57;100.00;61215.63;6216116;23;20015;-82
2022/01/10 09:29:08;;;;;;;21.15;6.95;;;;;;;-142.57;100.00;61215.63;6216805;23;20012;-83
2022/01/10 09:31:34;;;;;;;13.35;6.30;;;;;;;-142.57;100.00;61215.63;6216181;23;20001;-81
2022/01/10 09:34:00;;;;;;;16.17;7.55;;;;;;;-142.57;100.00;61215.63;6217568;23;20213;-81
2022/01/10 09:36:28;;;;;;;21.70;10.88;;;;;;;-142.57;100.00;61215.63;6222444;23;20004;-80
2022/01/10 09:38:55;;;;;;;29.38;12.75;;;;;;;-142.57;100.00;61215.63;6220132;23;20068;-83
2022/01/10 09:41:22;;;;;;;34.15;16.48;;;;;;;-142.57;100.00;61215.63;6220947;23;20023;-82
2022/01/10 09:43:53;;;;;;;40.05;17.67;;;;;;;-142.57;100.00;61215.63;6217458;23;20056;-83
2022/01/10 09:46:19;;;;;;;43.28;18.25;;;;;;;-142.57;100.00;61215.63;6216317;23;20036;-81
2022/01/10 09:48:46;;;;;;;52.75;18.67;;;;;;;-142.57;100.00;61215.63;6218550;23;20063;-82
2022/01/10 09:51:13;;;;;;;39.67;19.02;;;;;;;-142.57;100.00;61215.63;6218157;23;20355;-82
2022/01/10 09:53:39;;;;;;;46.72;18.75;;;;;;;-142.57;100.00;61215.63;6191431;23;20013;-82
2022/01/10 09:56:04;;;;;;;44.22;18.92;;;;;;;-142.57;100.00;61215.63;6219147;23;20059;-84
2022/01/10 09:58:30;;;;;;;44.53;18.58;;;;;;;-142.57;100.00;61215.63;6218887;23;20420;-84
2022/01/10 10:00:57;;;;;;;53.00;19.67;;;;;;;-142.57;100.00;61215.63;6219616;23;20372;-81
2022/01/10 10:03:24;;;;;;;59.50;22.10;;;;;;;-142.57;100.00;61215.63;6222185;23;20001;-84
2022/01/10 10:05:54;;;;;;;51.78;18.33;;;;;;;-142.57;100.00;61215.63;6208578;23;20017;-82
2022/01/10 10:08:24;;;;;;;54.60;19.15;;;;;;;-142.57;100.00;61215.63;6219304;23;20448;-84
2022/01/10 10:10:51;;;;;;;60.35;19.60;;;;;;;-142.57;100.00;61215.63;6220788;23;20019;-82
2022/01/10 10:13:18;;;;;;;56.78;18.45;;;;;;;-142.57;100.00;61215.63;6220033;23;20015;-83
2022/01/10 10:15:45;;;;;;;54.10;18.73;;;;;;;-142.57;100.00;61215.63;6224245;23;20018;-81
2022/01/10 10:18:13;;;;;;;88.05;19.35;;;;;;;-142.57;100.00;61215.63;6221364;23;20008;-81
2022/01/10 10:20:41;;;;;;;116.85;22.85;;;;;;;-142.57;100.00;61215.63;6222347;23;20019;-84
2022/01/10 10:23:07;;;;;;;66.15;18.92;;;;;;;-142.57;100.00;61215.63;6222814;23;20016;-80
2022/01/10 10:25:33;;;;;;;60.88;19.40;;;;;;;-142.57;100.00;61215.63;6222916;23;20443;-83
2022/01/10 10:28:00;;;;;;;62.10;18.02;;;;;;;-142.57;100.00;61215.63;6222699;23;20023;-83
2022/01/10 10:30:29;;;;;;;58.28;18.15;;;;;;;-142.57;100.00;61215.63;6222349;23;20005;-82
2022/01/10 10:33:10;;;;;;;48.58;17.33;;;;;;;-142.57;100.00;61215.63;6221871;23;20001;-81
2022/01/10 10:35:37;;;;;;;58.15;17.23;;;;;;;-142.57;100.00;61215.63;6228784;23;20013;-81
2022/01/10 10:38:03;;;;;;;40.45;16.00;;;;;;;-142.57;100.00;61215.63;6230587;23;20009;-82
2022/01/10 10:40:29;;;;;;;53.47;15.80;;;;;;;-142.57;100.00;61215.63;6237462;23;20039;-82
2022/01/10 10:42:58;;;;;;;37.42;15.82;;;;;;;-142.57;100.00;61215.63;6237997;23;20005;-83
2022/01/10 10:45:25;;;;;;;67.22;18.70;;;;;;;-142.57;100.00;61215.63;6237182;23;20013;-83
2022/01/10 10:47:51;;;;;;;49.95;16.58;;;;;;;-142.57;100.00;61215.63;6237014;23;20020;-81
2022/01/10 10:50:17;;;;;;;39.45;16.85;;;;;;;-142.57;100.00;61215.63;6209135;23;20000;-81
2022/01/10 10:52:43;;;;;;;37.70;17.40;;;;;;;-142.57;100.00;61215.63;6225045;23;20039;-81
2022/01/10 10:55:13;;;;;;;41.28;16.45;;;;;;;-142.57;100.00;61215.63;6223442;23;20874;-83
2022/01/10 10:57:41;;;;;;;34.33;16.33;;;;;;;-142.57;100.00;61215.63;6195745;23;20061;-84
2022/01/10 11:00:12;;;;;;;34.50;17.75;;;;;;;-142.57;100.00;61215.63;6224217;23;20067;-84
2022/01/10 11:02:39;;;;;;;34.92;12.13;;;;;;;-142.57;100.00;61215.63;6222776;23;20016;-83
2022/01/10 11:05:07;;;;;;;33.38;17.65;;;;;;;-142.57;100.00;61215.63;6221068;23;20016;-81
2022/01/10 11:07:35;;;;;;;44.97;18.73;;;;;;;-142.57;100.00;61215.63;6222159;23;20009;-82
2022/01/10 11:10:07;;;;;;;37.15;16.30;;;;;;;-142.57;100.00;61215.63;6226514;23;20103;-83
2022/01/10 11:12:35;;;;;;;35.67;16.02;;;;;;;-142.57;100.00;61215.63;6227967;23;20004;-82